Time;durP1;ratioP1;P1;durP2;ratioP2;P2;SDS_P1;SDS_P2;PMS_P1;PMS_P2;Temp;Humidity;BMP_temperature;BMP_pressure;BME280_temperature;BME280_humidity;BME280_pressure;Samples;Min_cycle;Max_cycle;Signal;HPM_P1;HPM_P2
2023/07/16 00:00:12;;;;;;;1.93;1.47;;;27.30;53.10;;;;;;5045454;28;20177;-90
2023/07/16 00:02:38;;;;;;;1.30;1.20;;;27.30;53.10;;;;;;5036343;28;20188;-90
2023/07/16 00:05:05;;;;;;;2.07;1.30;;;27.30;53.10;;;;;;5045555;28;20176;-90
2023/07/16 00:07:31;;;;;;;1.67;1.30;;;27.30;53.10;;;;;;5037289;28;20176;-90
2023/07/16 00:09:57;;;;;;;1.47;1.30;;;27.30;53.10;;;;;;5053408;28;20246;-90
2023/07/16 00:12:23;;;;;;;1.60;1.30;;;27.30;53.10;;;;;;5042970;28;20191;-90
2023/07/16 00:14:48;;;;;;;1.60;1.30;;;27.20;53.10;;;;;;5052543;28;20208;-89
2023/07/16 00:17:14;;;;;;;2.70;1.40;;;27.30;53.10;;;;;;5044801;28;20177;-90
2023/07/16 00:19:40;;;;;;;2.33;1.40;;;27.30;53.10;;;;;;5034200;28;20180;-90
2023/07/16 00:22:07;;;;;;;1.67;1.20;;;27.30;53.10;;;;;;5042132;28;20181;-90
2023/07/16 00:24:32;;;;;;;1.30;1.20;;;27.30;53.10;;;;;;5046562;28;20202;-90
2023/07/16 00:26:58;;;;;;;1.20;1.10;;;27.30;53.10;;;;;;5038246;28;20501;-90
2023/07/16 00:29:24;;;;;;;2.07;1.40;;;27.20;53.00;;;;;;5045664;28;20188;-89
2023/07/16 00:31:50;;;;;;;1.90;1.17;;;27.20;53.10;;;;;;5021562;28;20192;-89
2023/07/16 00:34:15;;;;;;;1.53;1.10;;;27.20;53.10;;;;;;5047262;28;20538;-90
2023/07/16 00:36:41;;;;;;;2.30;1.20;;;27.20;53.10;;;;;;5056229;28;20210;-89
2023/07/16 00:39:07;;;;;;;1.30;1.20;;;27.20;53.10;;;;;;5045434;28;20176;-90
2023/07/16 00:41:33;;;;;;;1.63;1.30;;;27.10;53.10;;;;;;5034828;28;20177;-89
2023/07/16 00:43:59;;;;;;;1.87;1.30;;;27.10;53.10;;;;;;5039319;28;20215;-91
2023/07/16 00:46:25;;;;;;;1.40;1.20;;;27.20;53.10;;;;;;5044427;28;20585;-90
2023/07/16 00:48:51;;;;;;;1.87;1.33;;;27.10;53.10;;;;;;5041088;28;20188;-90
2023/07/16 00:51:18;;;;;;;1.50;1.20;;;27.10;53.10;;;;;;5045281;28;20271;-90
2023/07/16 00:53:45;;;;;;;1.20;1.10;;;27.10;53.10;;;;;;5032449;28;20204;-90
2023/07/16 00:56:15;;;;;;;1.97;1.30;;;27.10;53.10;;;;;;5024762;28;20177;-90
2023/07/16 00:58:41;;;;;;;1.67;1.20;;;27.10;53.10;;;;;;5046546;28;20192;-90
2023/07/16 01:01:07;;;;;;;1.50;1.40;;;27.10;53.10;;;;;;5055620;28;20411;-90
2023/07/16 01:03:33;;;;;;;1.20;1.10;;;27.10;53.10;;;;;;5037378;28;20422;-90
2023/07/16 01:06:15;;;;;;;1.40;1.20;;;27.10;53.10;;;;;;5045246;28;20188;-89
2023/07/16 01:09:08;;;;;;;3.47;1.40;;;27.00;53.20;;;;;;5032896;28;20181;-90
2023/07/16 01:11:36;;;;;;;1.50;1.40;;;27.00;53.20;;;;;;5028119;28;20184;-89
2023/07/16 01:14:02;;;;;;;1.40;1.13;;;27.00;53.10;;;;;;5054675;28;20653;-90
2023/07/16 01:16:28;;;;;;;1.50;1.40;;;27.00;53.10;;;;;;5023826;28;20181;-90
2023/07/16 01:18:54;;;;;;;2.00;1.30;;;27.10;53.10;;;;;;5043863;28;20234;-90
2023/07/16 01:21:22;;;;;;;2.27;1.40;;;27.10;53.10;;;;;;5053925;28;20176;-90
2023/07/16 01:24:03;;;;;;;1.40;1.30;;;27.10;53.10;;;;;;5037111;28;20393;-89
2023/07/16 01:26:47;;;;;;;1.37;1.20;;;27.00;53.10;;;;;;5044713;28;20394;-90
2023/07/16 01:29:27;;;;;;;1.60;1.50;;;27.00;53.10;;;;;;5042690;28;20451;-90
2023/07/16 01:31:56;;;;;;;1.40;1.30;;;27.00;53.10;;;;;;5043187;28;20566;-89
2023/07/16 01:34:24;;;;;;;1.60;1.30;;;27.00;53.20;;;;;;5042790;28;20452;-90
2023/07/16 01:36:50;;;;;;;0.87;0.87;;;27.00;53.10;;;;;;5044080;28;20561;-90
2023/07/16 01:39:16;;;;;;;1.33;1.23;;;27.00;53.30;;;;;;5047790;28;20203;-90
2023/07/16 01:41:42;;;;;;;1.20;1.10;;;26.90;53.20;;;;;;5034703;28;20471;-90
2023/07/16 01:44:08;;;;;;;1.20;1.10;;;27.00;53.30;;;;;;5043547;28;20554;-90
2023/07/16 01:46:33;;;;;;;2.37;1.37;;;26.90;53.20;;;;;;5035249;28;20184;-90
2023/07/16 01:48:59;;;;;;;1.70;1.13;;;26.90;53.20;;;;;;5042884;28;20231;-89
2023/07/16 01:51:25;;;;;;;1.40;1.30;;;26.90;53.20;;;;;;5044559;28;20502;-89
2023/07/16 01:53:51;;;;;;;2.27;1.70;;;26.90;53.30;;;;;;5034586;28;20219;-89
2023/07/16 01:56:17;;;;;;;1.40;1.20;;;26.90;53.30;;;;;;5047146;28;20334;-89
2023/07/16 01:58:42;;;;;;;2.13;1.27;;;26.90;53.30;;;;;;5045831;28;20180;-90
2023/07/16 02:01:08;;;;;;;1.70;1.30;;;26.90;53.30;;;;;;5037643;28;20565;-90
2023/07/16 02:03:34;;;;;;;1.53;1.10;;;26.90;53.20;;;;;;5045597;28;20281;-89
2023/07/16 02:06:00;;;;;;;1.27;1.17;;;26.90;53.20;;;;;;5035068;28;20215;-90
2023/07/16 02:08:26;;;;;;;1.33;1.10;;;26.90;53.20;;;;;;5044796;28;20287;-89
2023/07/16 02:10:52;;;;;;;2.97;1.30;;;26.90;53.20;;;;;;5035619;28;20183;-89
2023/07/16 02:13:17;;;;;;;1.43;1.10;;;26.90;53.30;;;;;;5044833;28;20208;-89
2023/07/16 02:15:43;;;;;;;1.73;1.20;;;26.90;53.20;;;;;;5035650;28;20208;-90
2023/07/16 02:18:09;;;;;;;1.70;1.10;;;26.90;53.30;;;;;;5042367;28;20241;-90
2023/07/16 02:20:35;;;;;;;1.70;1.10;;;26.90;53.20;;;;;;5049787;28;20234;-90
2023/07/16 02:23:01;;;;;;;1.90;1.10;;;26.90;53.30;;;;;;5041922;28;20192;-90
2023/07/16 02:25:27;;;;;;;1.77;1.30;;;26.90;53.30;;;;;;5041617;28;20310;-91
2023/07/16 02:27:52;;;;;;;0.90;0.90;;;26.80;53.20;;;;;;5044582;28;20191;-90
2023/07/16 02:30:19;;;;;;;1.73;1.17;;;26.80;53.30;;;;;;5037041;28;20504;-90
2023/07/16 02:32:44;;;;;;;1.60;1.50;;;26.80;53.20;;;;;;5042190;28;20574;-91
2023/07/16 02:35:10;;;;;;;1.33;1.17;;;26.80;53.30;;;;;;5044901;28;20218;-91
2023/07/16 02:37:36;;;;;;;1.30;1.20;;;26.80;53.30;;;;;;5033153;28;20196;-90
2023/07/16 02:40:02;;;;;;;1.40;1.30;;;26.80;53.30;;;;;;5044809;28;20970;-90
2023/07/16 02:42:29;;;;;;;1.23;1.13;;;26.80;53.30;;;;;;5037307;28;20199;-90
2023/07/16 02:44:54;;;;;;;1.50;1.10;;;26.80;53.30;;;;;;5032760;28;20312;-90
2023/07/16 02:47:20;;;;;;;2.07;1.20;;;26.80;53.30;;;;;;5041928;28;20283;-89
2023/07/16 02:49:46;;;;;;;2.33;1.47;;;26.80;53.30;;;;;;5024958;28;20192;-90
2023/07/16 02:52:12;;;;;;;1.80;1.40;;;26.80;53.30;;;;;;5044180;28;20310;-90
2023/07/16 02:54:37;;;;;;;1.30;1.20;;;26.80;53.30;;;;;;5043068;28;20589;-91
2023/07/16 02:57:05;;;;;;;1.40;1.20;;;26.80;53.20;;;;;;5052975;28;20246;-90
2023/07/16 02:59:30;;;;;;;1.97;1.33;;;26.80;53.30;;;;;;5033403;28;20181;-88
2023/07/16 03:01:56;;;;;;;1.57;1.30;;;26.80;53.30;;;;;;5044814;28;20191;-91
2023/07/16 03:04:22;;;;;;;1.73;1.20;;;26.80;53.30;;;;;;5035096;28;20183;-90
2023/07/16 03:06:48;;;;;;;1.67;1.20;;;26.70;53.30;;;;;;5042618;28;20188;-90
2023/07/16 03:09:13;;;;;;;1.30;1.10;;;26.70;53.30;;;;;;5035795;28;20180;-91
2023/07/16 03:11:39;;;;;;;0.87;0.87;;;26.70;53.40;;;;;;5035453;28;20198;-90
2023/07/16 03:14:05;;;;;;;1.53;1.17;;;26.70;53.40;;;;;;5042440;28;20277;-89
2023/07/16 03:16:31;;;;;;;1.93;1.40;;;26.70;53.40;;;;;;5033368;28;20191;-90
2023/07/16 03:18:57;;;;;;;1.57;1.23;;;26.60;53.40;;;;;;5043526;28;20180;-91
2023/07/16 03:21:22;;;;;;;1.43;1.20;;;26.60;53.40;;;;;;5033668;28;20457;-91
2023/07/16 03:23:48;;;;;;;1.27;1.17;;;26.60;53.40;;;;;;5044320;28;20212;-91
2023/07/16 03:26:14;;;;;;;1.10;1.00;;;26.60;53.40;;;;;;5035700;28;20184;-91
2023/07/16 03:28:40;;;;;;;1.47;1.20;;;26.70;53.40;;;;;;5043826;28;20279;-91
2023/07/16 03:31:05;;;;;;;2.17;1.40;;;26.60;53.30;;;;;;5043643;28;20271;-88
2023/07/16 03:33:31;;;;;;;1.53;1.30;;;26.60;53.40;;;;;;5034638;28;20533;-91
2023/07/16 03:35:57;;;;;;;1.57;1.30;;;26.60;53.40;;;;;;5036038;28;20295;-91
2023/07/16 03:38:22;;;;;;;1.30;1.10;;;26.60;53.40;;;;;;5041403;28;20192;-92
2023/07/16 03:40:49;;;;;;;3.70;1.20;;;26.60;53.40;;;;;;5035774;28;20185;-91
2023/07/16 03:43:16;;;;;;;1.50;1.30;;;26.60;53.40;;;;;;5045032;28;20370;-91
2023/07/16 03:45:43;;;;;;;2.20;1.53;;;26.60;53.50;;;;;;5036729;28;20188;-90
2023/07/16 03:48:08;;;;;;;1.47;1.10;;;26.60;53.40;;;;;;5054790;28;20184;-91
2023/07/16 03:50:35;;;;;;;1.20;1.10;;;26.60;53.50;;;;;;5055371;28;20439;-90
2023/07/16 03:53:02;;;;;;;2.87;1.60;;;26.50;53.40;;;;;;5047711;28;20191;-91
2023/07/16 03:55:29;;;;;;;2.50;1.20;;;26.60;53.50;;;;;;5051858;28;20184;-90
2023/07/16 03:57:55;;;;;;;1.93;1.30;;;26.60;53.40;;;;;;5052719;28;20181;-92
2023/07/16 04:00:21;;;;;;;2.20;1.37;;;26.60;53.50;;;;;;5039682;28;20180;-90
2023/07/16 04:02:47;;;;;;;2.23;1.57;;;26.50;53.40;;;;;;5049273;28;20180;-91
2023/07/16 04:05:12;;;;;;;2.17;1.20;;;26.50;53.40;;;;;;5039966;28;20249;-90
2023/07/16 04:07:38;;;;;;;2.40;1.40;;;26.50;53.40;;;;;;5047103;28;20220;-91
2023/07/16 04:10:04;;;;;;;1.30;1.20;;;26.50;53.50;;;;;;5039521;28;20266;-92
2023/07/16 04:12:30;;;;;;;1.83;1.30;;;26.50;53.50;;;;;;5038992;28;20271;-90
2023/07/16 04:14:58;;;;;;;2.20;1.20;;;26.50;53.50;;;;;;5035934;28;20259;-90
2023/07/16 04:17:24;;;;;;;1.80;1.30;;;26.50;53.50;;;;;;5045323;28;20286;-91
2023/07/16 04:19:50;;;;;;;1.73;1.20;;;26.50;53.50;;;;;;5045823;28;20195;-91
2023/07/16 04:22:16;;;;;;;1.70;1.20;;;26.50;53.50;;;;;;5047194;28;20176;-92
2023/07/16 04:24:42;;;;;;;2.47;1.47;;;26.50;53.50;;;;;;5038363;28;20195;-91
2023/07/16 04:27:08;;;;;;;1.47;1.30;;;26.50;53.50;;;;;;5047756;28;20188;-91
2023/07/16 04:29:33;;;;;;;1.97;1.20;;;26.50;53.50;;;;;;5045003;28;20188;-91
2023/07/16 04:31:59;;;;;;;1.70;1.23;;;26.50;53.50;;;;;;5035931;28;20351;-91
2023/07/16 04:34:25;;;;;;;2.03;1.30;;;26.50;53.50;;;;;;5044609;28;20235;-92
2023/07/16 04:36:51;;;;;;;1.40;1.30;;;26.50;53.40;;;;;;5033134;28;20254;-91
2023/07/16 04:39:16;;;;;;;1.77;1.10;;;26.60;53.40;;;;;;5043268;28;20185;-91
2023/07/16 04:41:42;;;;;;;1.57;1.40;;;26.60;53.30;;;;;;5045993;28;20513;-90
2023/07/16 04:44:08;;;;;;;1.73;1.30;;;26.60;53.30;;;;;;5046858;28;20184;-91
2023/07/16 04:46:34;;;;;;;2.40;1.30;;;26.60;53.40;;;;;;5037808;28;20252;-92
2023/07/16 04:49:01;;;;;;;1.30;1.20;;;26.60;53.20;;;;;;5046661;28;20265;-90
2023/07/16 04:51:27;;;;;;;1.70;1.27;;;26.70;53.20;;;;;;5036754;28;20180;-91
2023/07/16 04:53:53;;;;;;;2.43;1.30;;;26.70;53.20;;;;;;5054688;28;20548;-91
2023/07/16 04:56:18;;;;;;;3.07;1.30;;;26.70;53.20;;;;;;5037370;28;20184;-91
2023/07/16 04:58:44;;;;;;;1.90;1.30;;;26.70;53.20;;;;;;5043218;28;20204;-91
2023/07/16 05:01:10;;;;;;;1.80;1.40;;;26.70;53.20;;;;;;5042604;28;20185;-90
2023/07/16 05:03:37;;;;;;;2.00;1.30;;;26.70;53.10;;;;;;5030221;28;20241;-91
2023/07/16 05:06:04;;;;;;;1.60;1.20;;;26.70;53.10;;;;;;5045979;28;20191;-90
2023/07/16 05:08:30;;;;;;;1.60;1.20;;;26.70;53.10;;;;;;5042116;28;20189;-91
2023/07/16 05:10:55;;;;;;;1.50;1.20;;;26.70;53.10;;;;;;5048296;28;20184;-90
2023/07/16 05:13:21;;;;;;;2.07;1.50;;;26.70;53.00;;;;;;5045247;28;20223;-90
2023/07/16 05:15:47;;;;;;;1.40;1.23;;;26.70;53.10;;;;;;5037101;28;20226;-90
2023/07/16 05:18:13;;;;;;;1.70;1.30;;;26.80;53.10;;;;;;5046526;28;20177;-90
2023/07/16 05:20:38;;;;;;;1.87;1.37;;;26.80;53.10;;;;;;5034976;28;20235;-90
2023/07/16 05:23:04;;;;;;;2.83;1.30;;;26.80;53.00;;;;;;5045058;28;20187;-91
2023/07/16 05:25:30;;;;;;;2.00;1.60;;;26.80;53.00;;;;;;5052755;28;20450;-90
2023/07/16 05:27:56;;;;;;;1.73;1.50;;;26.80;52.90;;;;;;5044566;28;20176;-90
2023/07/16 05:30:22;;;;;;;1.50;1.20;;;26.90;52.90;;;;;;5034425;28;20193;-89
2023/07/16 05:32:48;;;;;;;2.93;1.43;;;26.90;52.80;;;;;;5046673;28;20187;-90
2023/07/16 05:35:13;;;;;;;1.50;1.30;;;26.90;52.80;;;;;;5041797;28;20227;-90
2023/07/16 05:37:39;;;;;;;1.30;1.20;;;27.00;52.80;;;;;;5034269;28;20344;-88
2023/07/16 05:40:08;;;;;;;2.50;1.50;;;26.90;52.80;;;;;;5044204;28;20187;-90
2023/07/16 05:42:34;;;;;;;1.60;1.30;;;27.00;52.80;;;;;;5034052;28;20320;-91
2023/07/16 05:45:00;;;;;;;1.30;1.20;;;27.00;52.70;;;;;;5040733;28;20554;-90
2023/07/16 05:47:25;;;;;;;1.53;1.40;;;27.00;52.70;;;;;;5034361;28;20184;-90
2023/07/16 05:49:51;;;;;;;1.57;1.20;;;27.10;52.70;;;;;;5044370;28;20188;-90
2023/07/16 05:52:18;;;;;;;2.60;1.50;;;27.10;52.60;;;;;;5042540;28;20187;-90
2023/07/16 05:54:44;;;;;;;3.57;1.17;;;27.10;52.60;;;;;;5035226;28;20212;-92
2023/07/16 05:57:11;;;;;;;1.67;1.53;;;27.10;52.50;;;;;;5026946;28;20185;-92
2023/07/16 05:59:37;;;;;;;1.63;1.30;;;27.20;52.60;;;;;;5033779;28;20176;-91
2023/07/16 06:02:03;;;;;;;1.80;1.50;;;27.20;52.50;;;;;;5043087;28;20334;-89
2023/07/16 06:04:29;;;;;;;3.07;1.50;;;27.20;52.40;;;;;;5043081;28;20180;-92
2023/07/16 06:06:56;;;;;;;2.70;1.40;;;27.20;52.40;;;;;;5031520;28;20476;-91
2023/07/16 06:09:22;;;;;;;1.93;1.50;;;27.30;52.40;;;;;;5043346;28;20187;-91
2023/07/16 06:11:48;;;;;;;3.97;1.43;;;27.30;52.50;;;;;;5043142;28;20192;-92
2023/07/16 06:14:14;;;;;;;2.70;1.50;;;27.30;52.50;;;;;;5015201;28;20212;-90
2023/07/16 06:16:39;;;;;;;3.17;1.40;;;27.30;52.50;;;;;;5046936;28;20176;-90
2023/07/16 06:19:06;;;;;;;3.47;1.30;;;27.30;52.50;;;;;;5051082;28;20387;-90
2023/07/16 06:21:32;;;;;;;2.10;1.53;;;27.30;52.50;;;;;;5030598;28;20207;-90
2023/07/16 06:23:57;;;;;;;1.43;1.20;;;27.30;52.50;;;;;;5043489;28;20578;-90
2023/07/16 06:26:23;;;;;;;2.97;1.40;;;27.30;52.40;;;;;;5033694;28;20443;-90
2023/07/16 06:28:49;;;;;;;2.80;1.10;;;27.30;52.40;;;;;;5039006;28;20585;-90
2023/07/16 06:31:17;;;;;;;1.83;1.20;;;27.40;52.40;;;;;;5041450;28;20184;-89
2023/07/16 06:33:43;;;;;;;1.87;1.43;;;27.40;52.40;;;;;;5031147;28;20276;-90
2023/07/16 06:36:08;;;;;;;3.97;1.77;;;27.40;52.40;;;;;;5032532;28;20207;-89
2023/07/16 06:38:34;;;;;;;2.13;1.50;;;27.40;52.30;;;;;;5040458;28;20263;-89
2023/07/16 06:41:00;;;;;;;1.93;1.70;;;27.50;52.30;;;;;;5029240;28;20250;-90
2023/07/16 06:43:26;;;;;;;2.33;1.60;;;27.50;52.30;;;;;;5031094;28;20180;-89
2023/07/16 06:45:51;;;;;;;2.47;1.50;;;27.50;52.30;;;;;;5040771;28;20184;-90
2023/07/16 06:48:17;;;;;;;1.80;1.53;;;27.50;52.20;;;;;;5032770;28;20188;-90
2023/07/16 06:50:44;;;;;;;2.17;1.70;;;27.60;52.30;;;;;;5040891;28;20196;-90
2023/07/16 06:53:09;;;;;;;2.33;1.67;;;27.50;52.20;;;;;;5032684;28;20344;-90
2023/07/16 06:55:35;;;;;;;2.53;1.70;;;27.60;52.20;;;;;;5038436;28;20184;-90
2023/07/16 06:58:02;;;;;;;2.05;1.40;;;27.60;52.20;;;;;;5041542;28;20275;-90
2023/07/16 07:00:28;;;;;;;2.13;1.30;;;27.60;52.20;;;;;;5015977;28;20211;-89
2023/07/16 07:02:54;;;;;;;3.00;1.60;;;27.60;52.20;;;;;;5041683;28;20523;-89
2023/07/16 07:05:20;;;;;;;2.33;1.63;;;27.70;52.20;;;;;;5032825;28;20545;-89
2023/07/16 07:07:46;;;;;;;3.27;1.60;;;27.70;52.20;;;;;;5045218;28;20629;-89
2023/07/16 07:10:12;;;;;;;1.70;1.42;;;27.70;52.10;;;;;;5033557;28;20191;-89
2023/07/16 07:12:38;;;;;;;1.70;1.33;;;27.70;52.10;;;;;;5041257;28;20566;-90
2023/07/16 07:15:06;;;;;;;2.70;1.77;;;27.70;52.10;;;;;;5053735;28;20539;-89
2023/07/16 07:17:32;;;;;;;2.20;1.60;;;27.70;52.10;;;;;;5040527;28;20216;-88
2023/07/16 07:19:58;;;;;;;2.17;1.70;;;27.80;52.00;;;;;;5045137;28;20207;-89
2023/07/16 07:22:23;;;;;;;2.53;1.67;;;27.80;52.00;;;;;;5037476;28;20215;-90
2023/07/16 07:24:50;;;;;;;2.05;1.63;;;27.80;52.00;;;;;;5045431;28;20256;-89
2023/07/16 07:27:16;;;;;;;2.88;1.65;;;27.90;52.00;;;;;;5037002;28;20188;-89
2023/07/16 07:29:41;;;;;;;2.55;1.67;;;27.90;51.90;;;;;;5053792;28;20176;-89
2023/07/16 07:32:07;;;;;;;2.72;1.80;;;27.90;51.90;;;;;;5033309;28;20652;-89
2023/07/16 07:34:33;;;;;;;3.58;1.63;;;28.00;51.90;;;;;;5051805;28;20277;-88
2023/07/16 07:36:59;;;;;;;2.33;1.60;;;28.00;51.90;;;;;;5034780;28;20298;-88
2023/07/16 07:39:27;;;;;;;4.07;1.90;;;28.00;51.80;;;;;;5040487;28;20238;-89
2023/07/16 07:41:53;;;;;;;2.60;1.70;;;28.00;51.80;;;;;;5043257;28;20180;-89
2023/07/16 07:44:19;;;;;;;2.55;1.80;;;28.10;51.80;;;;;;5033632;28;20187;-90
2023/07/16 07:46:45;;;;;;;2.83;2.00;;;28.10;51.70;;;;;;5039473;28;20184;-90
2023/07/16 07:49:11;;;;;;;2.92;1.92;;;28.20;51.70;;;;;;5042740;28;20188;-89
2023/07/16 07:51:37;;;;;;;3.38;1.80;;;28.20;51.60;;;;;;5034133;28;20195;-90
2023/07/16 07:54:02;;;;;;;2.80;1.77;;;28.20;51.60;;;;;;5042937;28;20484;-92
2023/07/16 07:56:28;;;;;;;2.80;1.80;;;28.20;51.50;;;;;;5032375;28;20196;-91
2023/07/16 07:58:54;;;;;;;2.42;1.90;;;28.30;51.50;;;;;;5042620;28;20277;-90
2023/07/16 08:01:20;;;;;;;3.30;2.08;;;28.30;51.40;;;;;;5033749;28;20262;-92
2023/07/16 08:03:46;;;;;;;2.97;2.03;;;28.40;51.40;;;;;;5042763;28;20331;-90
2023/07/16 08:06:12;;;;;;;4.30;2.40;;;28.40;51.40;;;;;;5053144;28;20259;-91
2023/07/16 08:08:38;;;;;;;2.85;2.20;;;28.50;51.40;;;;;;5045036;28;20184;-90
2023/07/16 08:11:04;;;;;;;3.00;2.00;;;28.50;51.30;;;;;;5035628;28;20744;-89
2023/07/16 08:13:29;;;;;;;6.28;2.05;;;28.60;51.30;;;;;;5041520;28;20222;-90
2023/07/16 08:15:55;;;;;;;6.15;2.10;;;28.70;51.20;;;;;;5058510;28;20207;-92
2023/07/16 08:18:21;;;;;;;3.08;2.38;;;28.80;51.20;;;;;;5032370;28;20184;-90
2023/07/16 08:20:47;;;;;;;3.53;2.28;;;28.80;51.10;;;;;;5041719;28;20184;-90
2023/07/16 08:23:13;;;;;;;2.88;2.22;;;28.90;51.00;;;;;;5029771;28;20181;-91
2023/07/16 08:25:39;;;;;;;4.05;2.30;;;28.90;50.90;;;;;;5041296;28;20186;-90
2023/07/16 08:28:05;;;;;;;4.10;2.50;;;29.00;50.80;;;;;;5041614;28;20180;-90
2023/07/16 08:30:32;;;;;;;3.58;2.30;;;29.10;50.70;;;;;;5029889;28;20181;-89
2023/07/16 08:32:58;;;;;;;3.63;2.50;;;29.10;50.50;;;;;;5046360;28;20187;-92
2023/07/16 08:35:24;;;;;;;4.57;2.78;;;29.20;50.30;;;;;;5032463;28;20212;-89
2023/07/16 08:37:50;;;;;;;7.18;2.97;;;29.30;50.20;;;;;;5040919;28;20214;-89
2023/07/16 08:40:16;;;;;;;6.18;2.63;;;29.30;50.10;;;;;;5049630;28;20684;-89
2023/07/16 08:42:45;;;;;;;5.95;3.10;;;29.30;49.90;;;;;;5049934;28;20360;-90
2023/07/16 08:45:11;;;;;;;5.32;2.97;;;29.40;49.80;;;;;;5049144;28;20184;-88
2023/07/16 08:47:37;;;;;;;4.75;2.90;;;29.40;49.70;;;;;;5032396;28;20195;-90
2023/07/16 08:50:04;;;;;;;9.15;3.30;;;29.40;49.40;;;;;;5039940;28;20208;-89
2023/07/16 08:52:30;;;;;;;4.13;3.00;;;29.50;49.30;;;;;;5048735;28;20539;-90
2023/07/16 08:54:57;;;;;;;4.43;3.05;;;29.40;49.30;;;;;;5030995;28;20612;-91
2023/07/16 08:57:23;;;;;;;5.32;3.22;;;29.50;49.30;;;;;;5039859;28;20520;-89
2023/07/16 08:59:50;;;;;;;4.00;2.85;;;29.40;49.10;;;;;;5030174;28;20181;-90
2023/07/16 09:02:21;;;;;;;5.10;3.58;;;29.40;49.00;;;;;;5038899;28;20588;-91
2023/07/16 09:04:51;;;;;;;5.45;3.25;;;29.50;48.80;;;;;;5029144;28;20185;-89
2023/07/16 09:07:17;;;;;;;3.65;2.80;;;29.40;48.80;;;;;;5026271;28;20185;-90
2023/07/16 09:09:43;;;;;;;4.10;3.42;;;29.40;48.80;;;;;;5033597;28;20191;-89
2023/07/16 09:12:16;;;;;;;4.63;3.00;;;29.40;48.80;;;;;;5040923;28;20649;-89
2023/07/16 09:14:42;;;;;;;5.50;3.28;;;29.50;48.30;;;;;;5033195;28;20462;-90
2023/07/16 09:17:07;;;;;;;4.53;3.28;;;29.50;48.40;;;;;;5041132;28;20180;-92
2023/07/16 09:19:33;;;;;;;4.85;3.45;;;29.50;48.40;;;;;;5031144;28;20472;-90
2023/07/16 09:21:59;;;;;;;5.22;3.20;;;29.60;48.20;;;;;;5040220;28;20176;-88
2023/07/16 09:24:25;;;;;;;7.05;3.20;;;29.60;48.20;;;;;;5047992;28;20184;-91
2023/07/16 09:27:00;;;;;;;4.85;3.45;;;29.50;48.10;;;;;;5031806;28;20183;-89
2023/07/16 09:29:29;;;;;;;8.07;3.60;;;29.50;48.60;;;;;;5048319;28;20180;-90
2023/07/16 09:31:57;;;;;;;5.72;3.55;;;29.50;48.20;;;;;;5027566;28;20211;-89
2023/07/16 09:34:23;;;;;;;4.47;3.17;;;29.60;48.00;;;;;;5041269;28;20200;-89
2023/07/16 09:36:49;;;;;;;4.28;3.33;;;29.60;47.80;;;;;;5041625;28;20672;-89
2023/07/16 09:39:19;;;;;;;4.13;2.95;;;29.70;47.80;;;;;;5032522;28;20597;-90
2023/07/16 09:41:50;;;;;;;5.72;3.40;;;29.70;47.80;;;;;;5032132;28;20506;-89
2023/07/16 09:44:17;;;;;;;3.17;2.88;;;29.70;47.70;;;;;;5032419;28;20219;-90
2023/07/16 09:46:46;;;;;;;4.57;3.00;;;29.70;47.70;;;;;;5030757;28;20519;-90
2023/07/16 09:49:14;;;;;;;3.53;3.20;;;29.70;47.60;;;;;;5048906;28;20430;-89
2023/07/16 09:51:41;;;;;;;6.63;3.03;;;29.70;47.60;;;;;;5048946;28;20245;-89
2023/07/16 09:54:07;;;;;;;10.60;3.40;;;29.70;47.40;;;;;;5049573;28;20816;-89
2023/07/16 09:56:40;;;;;;;9.95;3.35;;;29.60;47.20;;;;;;5036248;28;20550;-89
2023/07/16 09:59:10;;;;;;;4.93;3.03;;;29.50;47.30;;;;;;5039457;28;20180;-90
2023/07/16 10:01:39;;;;;;;5.88;3.10;;;29.60;47.40;;;;;;5034614;28;20182;-88
2023/07/16 10:04:16;;;;;;;7.30;3.53;;;29.70;47.40;;;;;;5033643;28;20443;-89
2023/07/16 10:07:01;;;;;;;6.47;3.20;;;29.50;47.20;;;;;;5043898;28;20573;-89
2023/07/16 10:09:37;;;;;;;7.40;3.40;;;29.60;47.20;;;;;;5018607;28;20243;-87
2023/07/16 10:12:13;;;;;;;6.72;3.63;;;29.70;47.20;;;;;;5039770;28;20518;-89
2023/07/16 10:14:49;;;;;;;7.78;3.50;;;29.70;47.20;;;;;;5035567;28;20242;-88
2023/07/16 10:17:16;;;;;;;4.68;3.03;;;29.80;47.30;;;;;;5027806;28;20180;-88
2023/07/16 10:20:07;;;;;;;7.43;3.58;;;29.80;47.20;;;;;;5036834;28;20254;-88
2023/07/16 10:22:36;;;;;;;3.63;2.83;;;29.80;47.20;;;;;;5039104;28;20191;-89
2023/07/16 10:25:07;;;;;;;4.93;3.00;;;29.70;47.20;;;;;;5045708;28;20200;-88
2023/07/16 10:27:34;;;;;;;4.70;2.78;;;29.70;47.20;;;;;;5036151;28;20311;-89
2023/07/16 10:30:02;;;;;;;4.53;3.20;;;29.70;47.20;;;;;;5024566;28;20187;-88
2023/07/16 10:32:29;;;;;;;5.28;3.33;;;29.70;47.10;;;;;;5026239;28;20684;-87
2023/07/16 10:34:56;;;;;;;4.05;3.17;;;29.70;47.20;;;;;;5042394;28;20247;-89
2023/07/16 10:37:22;;;;;;;4.45;2.90;;;29.70;47.10;;;;;;5025030;28;20386;-90
2023/07/16 10:39:54;;;;;;;6.45;3.10;;;29.50;47.00;;;;;;5025137;28;20264;-89
2023/07/16 10:42:20;;;;;;;4.85;3.30;;;29.60;47.20;;;;;;5026307;28;20240;-89
2023/07/16 10:45:14;;;;;;;4.70;3.10;;;29.60;47.10;;;;;;5035238;28;20195;-89
2023/07/16 10:47:54;;;;;;;4.30;3.40;;;29.60;47.10;;;;;;5026963;28;20202;-89
2023/07/16 10:50:23;;;;;;;4.10;2.67;;;29.70;47.00;;;;;;5016922;28;20180;-89
2023/07/16 10:52:56;;;;;;;4.72;3.33;;;29.70;47.00;;;;;;5027392;28;20192;-90
2023/07/16 10:55:23;;;;;;;5.05;3.00;;;29.70;47.00;;;;;;5039081;28;20208;-88
2023/07/16 10:57:50;;;;;;;3.55;2.83;;;29.70;46.90;;;;;;5033626;28;20190;-88
2023/07/16 11:00:17;;;;;;;6.75;2.90;;;29.60;46.90;;;;;;5027004;28;20184;-90
2023/07/16 11:02:44;;;;;;;4.20;2.65;;;29.60;47.00;;;;;;5024840;28;20568;-90
2023/07/16 11:05:14;;;;;;;4.78;3.22;;;29.60;47.00;;;;;;5035698;28;20617;-89
2023/07/16 11:07:47;;;;;;;5.20;2.85;;;29.50;47.10;;;;;;5038386;28;20180;-89
2023/07/16 11:10:15;;;;;;;4.93;3.08;;;29.60;47.10;;;;;;5027125;28;20561;-89
2023/07/16 11:12:42;;;;;;;5.40;2.78;;;29.60;47.10;;;;;;5037091;28;20208;-89
2023/07/16 11:15:09;;;;;;;3.90;3.00;;;29.60;47.20;;;;;;5033706;28;20257;-89
2023/07/16 11:17:38;;;;;;;4.10;3.10;;;29.60;47.20;;;;;;5027394;28;20246;-89
2023/07/16 11:20:06;;;;;;;5.35;2.95;;;29.60;47.20;;;;;;5033082;28;20667;-90
2023/07/16 11:22:32;;;;;;;3.33;2.58;;;29.60;47.20;;;;;;5042621;28;20233;-90
2023/07/16 11:24:59;;;;;;;4.57;2.63;;;29.60;47.20;;;;;;5025242;28;20283;-88
2023/07/16 11:27:27;;;;;;;2.92;2.55;;;29.60;47.30;;;;;;5046089;28;20199;-89
2023/07/16 11:29:55;;;;;;;3.65;2.80;;;29.60;47.20;;;;;;5041036;28;20180;-87
2023/07/16 11:32:45;;;;;;;5.53;3.20;;;29.60;47.30;;;;;;5037040;28;20423;-90
2023/07/16 11:35:17;;;;;;;4.63;2.90;;;29.50;47.30;;;;;;5033466;28;20217;-88
2023/07/16 11:37:44;;;;;;;3.80;2.63;;;29.50;47.40;;;;;;5046601;28;20254;-89
2023/07/16 11:40:11;;;;;;;4.72;2.80;;;29.50;47.40;;;;;;5035901;28;20188;-89
2023/07/16 11:42:39;;;;;;;3.25;2.65;;;29.50;47.40;;;;;;5044380;28;20313;-89
2023/07/16 11:45:14;;;;;;;3.42;2.50;;;29.50;47.40;;;;;;5043915;28;20244;-89
2023/07/16 11:47:40;;;;;;;4.18;2.78;;;29.60;47.40;;;;;;5045109;28;20368;-89
2023/07/16 11:50:07;;;;;;;4.80;2.90;;;29.60;47.20;;;;;;5023851;28;20193;-89
2023/07/16 11:52:32;;;;;;;4.03;2.58;;;29.60;47.30;;;;;;5035786;28;20530;-89
2023/07/16 11:55:05;;;;;;;4.05;2.55;;;29.60;47.40;;;;;;5036145;28;20214;-89
2023/07/16 11:57:31;;;;;;;4.47;2.70;;;29.60;47.30;;;;;;5041562;28;20168;-89
2023/07/16 11:59:57;;;;;;;3.55;2.90;;;29.50;47.40;;;;;;5029986;28;20184;-89
2023/07/16 12:02:26;;;;;;;3.75;2.78;;;29.50;47.80;;;;;;5048946;28;20168;-88
2023/07/16 12:04:52;;;;;;;3.88;2.60;;;29.50;47.50;;;;;;5040065;28;20184;-89
2023/07/16 12:07:40;;;;;;;4.45;2.83;;;29.50;47.60;;;;;;5030443;28;20190;-88
2023/07/16 12:10:07;;;;;;;4.53;2.78;;;29.50;47.60;;;;;;5035591;28;20184;-89
2023/07/16 12:12:33;;;;;;;3.95;2.45;;;29.50;47.60;;;;;;5021179;28;20550;-89
2023/07/16 12:15:00;;;;;;;3.92;2.60;;;29.50;47.60;;;;;;5021046;28;20240;-89
2023/07/16 12:17:25;;;;;;;3.67;2.80;;;29.50;47.60;;;;;;5041346;28;20465;-89
2023/07/16 12:19:51;;;;;;;4.15;2.95;;;29.50;47.60;;;;;;5032718;28;20184;-89
2023/07/16 12:22:18;;;;;;;3.50;2.60;;;29.50;47.60;;;;;;5039684;28;20184;-88
2023/07/16 12:24:44;;;;;;;4.43;3.00;;;29.40;47.60;;;;;;5029216;28;20191;-88
2023/07/16 12:27:10;;;;;;;3.10;2.50;;;29.40;47.60;;;;;;5040052;28;20565;-90
2023/07/16 12:29:36;;;;;;;3.10;2.63;;;29.40;47.70;;;;;;5029157;28;20180;-89
2023/07/16 12:32:02;;;;;;;3.58;2.63;;;29.50;47.70;;;;;;5040318;28;20449;-89
2023/07/16 12:34:27;;;;;;;4.75;2.65;;;29.40;47.60;;;;;;5029501;28;20219;-88
2023/07/16 12:36:55;;;;;;;2.85;2.40;;;29.40;47.70;;;;;;5047888;28;20225;-88
2023/07/16 12:39:21;;;;;;;4.43;2.65;;;29.40;47.70;;;;;;5040618;28;20186;-89
2023/07/16 12:41:46;;;;;;;3.60;2.50;;;29.50;47.70;;;;;;5048345;28;20594;-90
2023/07/16 12:44:12;;;;;;;3.03;2.63;;;29.50;47.70;;;;;;5040661;28;20378;-88
2023/07/16 12:46:38;;;;;;;3.70;2.65;;;29.50;47.80;;;;;;5031538;28;20176;-88